createdAt,value
2022-11-18T00:01:13.619Z,5.85
2022-11-18T00:03:43.960Z,5.85
2022-11-18T00:06:12.920Z,5.87
2022-11-18T00:08:41.158Z,5.89
2022-11-18T00:11:09.853Z,5.89
2022-11-18T00:13:56.425Z,5.92
2022-11-18T00:16:24.613Z,5.95
2022-11-18T00:18:54.387Z,5.96
2022-11-18T00:21:22.597Z,6.00
2022-11-18T00:23:50.837Z,6.01
2022-11-18T00:26:19.140Z,5.99
2022-11-18T00:28:47.678Z,6.00
2022-11-18T00:31:15.958Z,6.00
2022-11-18T00:33:44.238Z,5.97
2022-11-18T00:36:13.866Z,5.90
2022-11-18T00:38:42.118Z,5.88
2022-11-18T00:41:11.092Z,5.88
2022-11-18T00:43:38.690Z,5.88
2022-11-18T00:46:07.704Z,5.89
2022-11-18T00:48:35.933Z,5.88
2022-11-18T00:51:08.665Z,5.88
2022-11-18T00:53:38.340Z,5.89
2022-11-18T00:56:07.125Z,5.87
2022-11-18T00:58:35.366Z,5.82
2022-11-18T01:01:03.748Z,5.81
2022-11-18T01:03:31.997Z,5.77
2022-11-18T01:06:00.234Z,5.73
2022-11-18T01:08:28.404Z,5.70
2022-11-18T01:11:18.699Z,5.66
2022-11-18T01:13:45.896Z,5.63
2022-11-18T01:16:14.193Z,5.67
2022-11-18T01:18:42.493Z,5.69
2022-11-18T01:21:10.729Z,5.69
2022-11-18T01:23:39.222Z,5.63
2022-11-18T01:26:09.877Z,5.52
2022-11-18T01:28:38.130Z,5.42
2022-11-18T01:31:06.622Z,5.31
2022-11-18T01:33:34.861Z,5.19
2022-11-18T01:36:03.137Z,5.11
2022-11-18T01:38:31.739Z,5.03
2022-11-18T01:40:59.974Z,4.97
2022-11-18T01:43:48.945Z,4.93
2022-11-18T01:46:17.211Z,4.88
2022-11-18T01:48:45.451Z,4.85
2022-11-18T01:51:16.363Z,4.85
2022-11-18T01:53:46.598Z,4.83
2022-11-18T01:56:15.968Z,4.84
2022-11-18T01:58:46.525Z,4.81
2022-11-18T02:01:14.772Z,4.85
2022-11-18T02:03:44.187Z,4.91
2022-11-18T02:06:12.680Z,4.95
2022-11-18T02:08:40.758Z,4.96
2022-11-18T02:11:31.121Z,5.07
2022-11-18T02:14:00.912Z,5.10
2022-11-18T02:16:33.935Z,5.06
2022-11-18T02:19:02.949Z,5.10
2022-11-18T02:21:36.125Z,5.16
2022-11-18T02:24:35.378Z,5.19
2022-11-18T02:27:51.148Z,5.23
2022-11-18T02:30:20.746Z,5.27
2022-11-18T02:32:51.470Z,5.30
2022-11-18T02:35:21.197Z,5.34
2022-11-18T02:37:51.097Z,5.37
2022-11-18T02:40:21.504Z,5.40
2022-11-18T02:42:52.111Z,5.47
2022-11-18T02:45:21.601Z,5.53
2022-11-18T02:47:49.982Z,5.55
2022-11-18T02:50:19.966Z,5.52
2022-11-18T02:52:47.994Z,5.56
2022-11-18T02:55:16.302Z,5.55
2022-11-18T02:57:44.795Z,5.57
2022-11-18T03:00:14.271Z,5.55
2022-11-18T03:02:44.476Z,5.57
2022-11-18T03:05:17.557Z,5.59
2022-11-18T03:07:45.770Z,5.59
2022-11-18T03:10:13.879Z,5.63
2022-11-18T03:12:44.488Z,5.64
2022-11-18T03:15:16.595Z,5.66
2022-11-18T03:17:51.797Z,5.67
2022-11-18T03:20:22.220Z,5.70
2022-11-18T03:22:52.367Z,5.73
2022-11-18T03:25:21.586Z,5.75
2022-11-18T03:27:52.344Z,5.75
2022-11-18T03:30:21.571Z,5.77
2022-11-18T03:32:52.782Z,5.78
2022-11-18T03:35:22.888Z,5.78
2022-11-18T03:37:51.233Z,5.80
2022-11-18T03:40:20.061Z,5.82
2022-11-18T03:42:50.825Z,5.80
2022-11-18T03:45:20.805Z,5.78
2022-11-18T03:47:52.550Z,5.80
2022-11-18T03:50:22.597Z,5.82
2022-11-18T03:52:50.692Z,5.82
2022-11-18T03:55:20.626Z,5.81
2022-11-18T03:57:51.792Z,5.81
2022-11-18T04:00:20.448Z,5.85
2022-11-18T04:02:52.423Z,5.84
2022-11-18T04:05:20.593Z,5.85
2022-11-18T04:07:54.593Z,5.83
2022-11-18T04:10:23.975Z,5.83
2022-11-18T04:12:55.440Z,5.86
2022-11-18T04:15:23.944Z,5.86
2022-11-18T04:17:53.382Z,5.85
2022-11-18T04:20:22.301Z,5.85
2022-11-18T04:22:50.697Z,5.85
2022-11-18T04:25:18.780Z,5.85
2022-11-18T04:27:46.829Z,5.85
2022-11-18T04:30:15.768Z,5.83
2022-11-18T04:32:43.813Z,5.86
2022-11-18T04:35:13.474Z,5.88
2022-11-18T04:37:41.477Z,5.91
2022-11-18T04:40:10.828Z,5.94
2022-11-18T04:42:38.877Z,5.96
2022-11-18T04:45:08.161Z,5.98
2022-11-18T04:47:36.279Z,5.99
2022-11-18T04:50:04.697Z,5.99
2022-11-18T04:52:34.125Z,6.00
2022-11-18T04:55:02.310Z,6.01
2022-11-18T04:57:30.583Z,6.02
2022-11-18T04:59:58.896Z,6.02
2022-11-18T05:02:27.463Z,6.04
2022-11-18T05:04:55.742Z,6.04
2022-11-18T05:07:24.052Z,6.05
2022-11-18T05:09:57.615Z,6.05
2022-11-18T05:12:43.095Z,6.06
2022-11-18T05:15:12.529Z,6.08
2022-11-18T05:17:41.122Z,6.09
2022-11-18T05:20:10.115Z,6.10
2022-11-18T05:22:38.297Z,6.11
2022-11-18T05:25:08.883Z,6.11
2022-11-18T05:27:37.180Z,6.10
2022-11-18T05:30:06.448Z,6.12
2022-11-18T05:32:34.998Z,6.14
2022-11-18T05:35:03.335Z,6.15
2022-11-18T05:37:37.164Z,6.17
2022-11-18T05:40:23.070Z,6.17
2022-11-18T05:43:08.650Z,6.15
2022-11-18T05:45:37.154Z,6.17
2022-11-18T05:48:07.900Z,6.21
2022-11-18T05:50:52.506Z,6.21
2022-11-18T05:53:22.166Z,6.21
2022-11-18T05:56:06.266Z,6.20
2022-11-18T05:58:38.165Z,6.20
2022-11-18T06:01:07.406Z,6.22
2022-11-18T06:03:38.706Z,6.21
2022-11-18T06:06:10.101Z,6.22
2022-11-18T06:08:43.059Z,6.23
2022-11-18T06:11:16.397Z,6.22
2022-11-18T06:13:50.466Z,6.22
2022-11-18T06:16:19.067Z,6.24
2022-11-18T06:18:47.278Z,6.25
2022-11-18T06:21:16.852Z,6.26
2022-11-18T06:23:50.477Z,6.27
2022-11-18T06:26:20.962Z,6.28
2022-11-18T06:28:53.244Z,6.30
2022-11-18T06:31:22.908Z,6.31
2022-11-18T06:33:52.869Z,6.29
2022-11-18T06:36:21.179Z,6.29
2022-11-18T06:38:49.381Z,6.30
2022-11-18T06:41:17.946Z,6.30
2022-11-18T06:43:48.113Z,6.32
2022-11-18T06:46:36.419Z,6.33
2022-11-18T06:49:06.584Z,6.36
2022-11-18T06:51:36.485Z,6.37
2022-11-18T06:54:10.424Z,6.38
2022-11-18T06:56:54.288Z,6.39
2022-11-18T06:59:24.646Z,6.41
2022-11-18T07:01:58.054Z,6.43
2022-11-18T07:04:27.487Z,6.44
2022-11-18T07:06:57.372Z,6.46
2022-11-18T07:09:26.520Z,6.48
2022-11-18T07:11:56.071Z,6.51
2022-11-18T07:14:27.129Z,6.53
2022-11-18T07:16:55.445Z,6.54
2022-11-18T07:19:24.790Z,6.56
2022-11-18T07:21:53.387Z,6.57
2022-11-18T07:24:21.837Z,6.58
2022-11-18T07:26:50.084Z,6.59
2022-11-18T07:29:18.752Z,6.60
2022-11-18T07:31:48.685Z,6.60
2022-11-18T07:34:17.399Z,6.60
2022-11-18T07:36:45.611Z,6.62
2022-11-18T07:39:15.137Z,6.63
2022-11-18T07:41:44.281Z,6.62
2022-11-18T07:44:12.835Z,6.62
2022-11-18T07:46:43.932Z,6.60
2022-11-18T07:49:15.997Z,6.57
2022-11-18T07:51:44.411Z,6.59
2022-11-18T07:54:13.937Z,6.57
2022-11-18T07:56:42.145Z,6.56
2022-11-18T07:59:10.401Z,6.56
2022-11-18T08:01:39.055Z,6.58
2022-11-18T08:04:07.950Z,6.58
2022-11-18T08:06:37.634Z,6.60
2022-11-18T08:09:06.474Z,6.59
2022-11-18T08:11:34.844Z,6.63
2022-11-18T08:14:03.038Z,6.63
2022-11-18T08:16:31.310Z,6.62
2022-11-18T08:18:59.918Z,6.66
2022-11-18T08:21:28.154Z,6.68
2022-11-18T08:23:58.402Z,6.72
2022-11-18T08:26:26.823Z,6.69
2022-11-18T08:28:55.570Z,6.74
2022-11-18T08:31:25.438Z,6.77
2022-11-18T08:33:56.031Z,6.80
2022-11-18T08:36:25.199Z,6.79
2022-11-18T08:38:53.451Z,6.77
2022-11-18T08:41:26.825Z,6.75
2022-11-18T08:43:55.291Z,6.70
2022-11-18T08:46:23.493Z,6.66
2022-11-18T08:48:51.726Z,6.65
2022-11-18T08:51:19.980Z,6.65
2022-11-18T08:53:48.207Z,6.62
2022-11-18T08:56:17.472Z,6.61
2022-11-18T08:58:47.564Z,6.58
2022-11-18T09:01:15.877Z,6.60
2022-11-18T09:03:44.166Z,6.61
2022-11-18T09:06:13.153Z,6.66
2022-11-18T09:08:41.426Z,6.63
2022-11-18T09:11:10.093Z,6.60
2022-11-18T09:14:38.980Z,6.60
2022-11-18T09:16:28.644Z,6.52
2022-11-18T09:18:57.005Z,6.44
2022-11-18T09:21:25.321Z,6.31
2022-11-18T09:23:53.633Z,6.30
2022-11-18T09:26:23.798Z,6.29
2022-11-18T09:28:54.360Z,6.31
2022-11-18T09:31:22.756Z,6.26
2022-11-18T09:33:52.494Z,6.20
2022-11-18T09:36:21.598Z,6.12
2022-11-18T09:38:53.230Z,6.11
2022-11-18T09:41:33.818Z,6.07
2022-11-18T09:44:06.261Z,6.05
2022-11-18T09:46:40.262Z,6.04
2022-11-18T09:49:16.237Z,5.90
2022-11-18T09:51:46.542Z,5.88
2022-11-18T09:54:20.424Z,5.77
2022-11-18T09:56:49.552Z,5.68
2022-11-18T09:59:19.028Z,5.66
2022-11-18T10:01:47.387Z,5.59
2022-11-18T10:04:17.848Z,5.57
2022-11-18T10:06:46.979Z,5.54
2022-11-18T10:09:22.609Z,5.41
2022-11-18T10:12:02.362Z,5.37
2022-11-18T10:14:41.265Z,5.36
2022-11-18T10:17:12.310Z,5.35
2022-11-18T10:19:44.601Z,5.12
2022-11-18T10:22:23.815Z,5.02
2022-11-18T10:24:53.650Z,4.99
2022-11-18T10:27:25.551Z,4.96
2022-11-18T10:29:55.315Z,4.96
2022-11-18T10:32:23.616Z,4.94
2022-11-18T10:34:53.985Z,4.83
2022-11-18T10:37:45.306Z,4.85
2022-11-18T10:40:25.203Z,4.90
2022-11-18T10:42:53.415Z,4.87
2022-11-18T10:45:26.413Z,4.73
2022-11-18T10:48:03.178Z,4.69
2022-11-18T10:50:34.757Z,4.54
2022-11-18T10:53:03.173Z,4.56
2022-11-18T10:55:31.500Z,4.66
2022-11-18T10:58:02.880Z,4.63
2022-11-18T11:00:42.729Z,4.61
2022-11-18T11:03:27.302Z,4.59
2022-11-18T11:06:16.799Z,4.34
2022-11-18T11:08:51.217Z,4.32
2022-11-18T11:11:28.595Z,4.20
2022-11-18T11:13:59.676Z,4.14
2022-11-18T11:16:28.166Z,4.08
2022-11-18T11:18:57.973Z,4.04
2022-11-18T11:21:28.735Z,4.08
2022-11-18T11:23:56.989Z,4.02
2022-11-18T11:29:30.189Z,3.61
2022-11-18T11:32:01.502Z,3.69
2022-11-18T11:34:32.716Z,3.58
2022-11-18T11:37:04.551Z,3.62
2022-11-18T11:39:42.217Z,3.60
2022-11-18T11:42:15.639Z,3.52
2022-11-18T11:44:51.541Z,3.62
2022-11-18T11:47:42.580Z,3.58
2022-11-18T11:50:14.563Z,3.51
2022-11-18T11:52:47.844Z,3.59
2022-11-18T11:55:19.963Z,3.49
2022-11-18T11:57:59.220Z,3.38
2022-11-18T12:00:28.908Z,3.25
2022-11-18T12:03:08.695Z,3.37
2022-11-18T12:05:39.216Z,3.49
2022-11-18T12:08:11.325Z,3.56
2022-11-18T12:10:44.959Z,3.49
2022-11-18T12:13:21.967Z,3.43
2022-11-18T12:15:56.215Z,3.41
2022-11-18T12:18:27.651Z,3.38
2022-11-18T12:20:56.071Z,3.21
2022-11-18T12:23:26.791Z,3.10
2022-11-18T12:25:57.048Z,3.12
2022-11-18T12:28:26.610Z,2.96
2022-11-18T12:31:36.303Z,2.87
2022-11-18T12:34:36.886Z,2.85
2022-11-18T12:37:40.623Z,2.91
2022-11-18T12:40:11.006Z,2.91
2022-11-18T12:43:00.860Z,2.80
2022-11-18T12:45:59.888Z,2.89
2022-11-18T12:48:46.027Z,2.77
2022-11-18T12:51:40.156Z,2.64
2022-11-18T12:54:24.460Z,2.64
2022-11-18T12:56:54.067Z,2.58
2022-11-18T12:59:28.819Z,2.56
2022-11-18T13:02:22.804Z,2.49
2022-11-18T13:05:07.913Z,2.50
2022-11-18T13:07:58.618Z,2.51
2022-11-18T13:10:28.846Z,2.46
2022-11-18T13:12:58.969Z,2.43
2022-11-18T13:15:45.096Z,2.44
2022-11-18T13:18:15.664Z,2.47
2022-11-18T13:20:44.099Z,2.52
2022-11-18T13:23:45.023Z,2.53
2022-11-18T13:26:16.371Z,2.53
2022-11-18T13:28:47.802Z,2.47
2022-11-18T13:31:18.232Z,2.37
2022-11-18T13:33:46.487Z,2.33
2022-11-18T13:36:18.069Z,2.29
2022-11-18T13:38:56.592Z,2.24
2022-11-18T13:41:24.888Z,2.25
2022-11-18T13:43:54.676Z,2.16
2022-11-18T13:46:23.160Z,2.18
2022-11-18T13:48:53.028Z,2.18
2022-11-18T13:51:21.276Z,2.10
2022-11-18T13:53:49.504Z,1.99
2022-11-18T13:56:19.669Z,1.90
2022-11-18T13:59:16.344Z,1.80
2022-11-18T14:01:44.922Z,1.81
2022-11-18T14:04:17.911Z,1.69
2022-11-18T14:06:46.219Z,1.64
2022-11-18T14:09:20.165Z,1.66
2022-11-18T14:12:00.131Z,1.67
2022-11-18T14:14:31.456Z,1.60
2022-11-18T14:17:18.364Z,1.49
2022-11-18T14:19:47.151Z,1.46
2022-11-18T14:22:16.567Z,1.58
2022-11-18T14:24:44.864Z,1.59
2022-11-18T14:27:39.210Z,1.64
2022-11-18T14:30:37.249Z,1.74
2022-11-18T14:33:16.424Z,1.70
2022-11-18T14:35:45.614Z,1.54
2022-11-18T14:38:35.894Z,1.48
2022-11-18T14:41:04.651Z,1.40
2022-11-18T14:43:33.035Z,1.49
2022-11-18T14:46:03.432Z,1.36
2022-11-18T14:48:32.736Z,1.31
2022-11-18T14:51:01.517Z,1.34
2022-11-18T14:53:29.762Z,1.33
2022-11-18T14:55:58.990Z,1.26
2022-11-18T14:58:27.529Z,1.26
2022-11-18T15:00:55.879Z,1.25
2022-11-18T15:03:25.694Z,1.26
2022-11-18T15:05:54.967Z,1.23
2022-11-18T15:08:23.473Z,1.31
2022-11-18T15:10:51.693Z,1.33
2022-11-18T15:13:19.969Z,1.22
2022-11-18T15:15:48.216Z,1.13
2022-11-18T15:18:16.436Z,1.21
2022-11-18T15:20:46.372Z,1.18
2022-11-18T15:23:14.638Z,1.22
2022-11-18T15:25:42.847Z,0.97
2022-11-18T15:28:11.092Z,0.93
2022-11-18T15:30:39.286Z,0.88
2022-11-18T15:33:07.626Z,0.85
2022-11-18T15:35:36.114Z,0.88
2022-11-18T15:38:06.212Z,0.77
2022-11-18T15:40:35.582Z,0.65
2022-11-18T15:43:03.890Z,0.78
2022-11-18T15:45:32.134Z,0.73
2022-11-18T15:48:00.670Z,0.74
2022-11-18T15:50:28.914Z,0.58
2022-11-18T15:52:57.529Z,0.56
2022-11-18T15:55:27.584Z,0.60
2022-11-18T15:57:55.776Z,0.58
2022-11-18T16:00:24.992Z,0.60
2022-11-18T16:02:53.636Z,0.64
2022-11-18T16:05:21.833Z,0.64
2022-11-18T16:07:54.679Z,0.58
2022-11-18T16:10:40.331Z,0.62
2022-11-18T16:13:10.134Z,0.46
2022-11-18T16:15:48.444Z,0.45
2022-11-18T16:18:18.071Z,0.35
2022-11-18T16:20:46.469Z,0.27
2022-11-18T16:23:14.724Z,0.20
2022-11-18T16:25:46.368Z,0.15
2022-11-18T16:28:16.365Z,0.23
2022-11-18T16:31:07.029Z,0.28
2022-11-18T16:33:35.260Z,0.28
2022-11-18T16:36:03.579Z,0.27
2022-11-18T16:38:32.368Z,0.33
2022-11-18T16:41:01.071Z,0.30
2022-11-18T16:43:30.731Z,0.28
2022-11-18T16:45:59.009Z,0.22
2022-11-18T16:48:27.340Z,0.06
2022-11-18T16:51:03.704Z,-0.02
2022-11-18T16:53:31.988Z,-0.02
2022-11-18T16:56:03.616Z,-0.02
2022-11-18T16:58:33.453Z,-0.12
2022-11-18T17:01:18.054Z,-0.07
2022-11-18T17:03:51.637Z,-0.01
2022-11-18T17:06:19.995Z,-0.10
2022-11-18T17:08:48.579Z,-0.12
2022-11-18T17:11:16.967Z,-0.07
2022-11-18T17:13:46.933Z,-0.11
2022-11-18T17:16:16.281Z,-0.15
2022-11-18T17:18:44.646Z,-0.28
2022-11-18T17:21:14.329Z,-0.24
2022-11-18T17:23:43.096Z,-0.17
2022-11-18T17:26:11.392Z,-0.32
2022-11-18T17:28:39.604Z,-0.43
2022-11-18T17:31:09.762Z,-0.44
2022-11-18T17:33:38.033Z,-0.38
2022-11-18T17:36:08.218Z,-0.49
2022-11-18T17:38:36.909Z,-0.34
2022-11-18T17:41:05.608Z,-0.43
2022-11-18T17:43:33.946Z,-0.55
2022-11-18T17:46:02.406Z,-0.51
2022-11-18T17:48:32.225Z,-0.45
2022-11-18T17:51:07.790Z,-0.51
2022-11-18T17:53:38.991Z,-0.45
2022-11-18T17:56:10.333Z,-0.47
2022-11-18T17:58:38.715Z,-0.50
2022-11-18T18:01:09.265Z,-0.48
2022-11-18T18:03:39.383Z,-0.42
2022-11-18T18:06:08.441Z,-0.62
2022-11-18T18:08:36.763Z,-0.68
2022-11-18T18:11:05.069Z,-0.53
2022-11-18T18:13:52.168Z,-0.52
2022-11-18T18:16:20.503Z,-0.52
2022-11-18T18:18:50.305Z,-0.66
2022-11-18T18:21:18.652Z,-0.62
2022-11-18T18:24:13.078Z,-0.63
2022-11-18T18:26:41.460Z,-0.67
2022-11-18T18:29:09.828Z,-0.68
2022-11-18T18:31:38.246Z,-0.70
2022-11-18T18:34:08.006Z,-0.75
2022-11-18T18:36:36.608Z,-0.84
2022-11-18T18:39:04.886Z,-0.83
2022-11-18T18:41:33.176Z,-0.61
2022-11-18T18:44:01.640Z,-0.48
2022-11-18T18:46:32.189Z,-0.55
2022-11-18T18:49:02.927Z,-0.54
2022-11-18T18:51:33.807Z,-0.76
2022-11-18T18:54:02.158Z,-0.68
2022-11-18T18:56:30.529Z,-0.82
2022-11-18T18:58:58.959Z,-0.83
2022-11-18T19:01:28.759Z,-0.73
2022-11-18T19:03:57.965Z,-0.77
2022-11-18T19:06:51.694Z,-0.73
2022-11-18T19:09:16.852Z,-0.79
2022-11-18T19:12:02.937Z,-0.82
2022-11-18T19:14:31.248Z,-0.69
2022-11-18T19:17:02.469Z,-0.79
2022-11-18T19:20:07.062Z,-0.77
2022-11-18T19:22:35.430Z,-0.65
2022-11-18T19:25:05.720Z,-0.78
2022-11-18T19:27:36.527Z,-0.77
2022-11-18T19:30:05.255Z,-0.71
2022-11-18T19:32:36.687Z,-0.96
2022-11-18T19:35:05.470Z,-1.08
2022-11-18T19:37:33.842Z,-0.97
2022-11-18T19:40:07.246Z,-0.94
2022-11-18T19:42:42.019Z,-1.12
2022-11-18T19:45:11.218Z,-1.27
2022-11-18T19:47:39.522Z,-1.37
2022-11-18T19:50:08.406Z,-1.42
2022-11-18T19:52:36.827Z,-1.44
2022-11-18T19:55:05.782Z,-1.36
2022-11-18T19:57:34.357Z,-1.36
2022-11-18T20:00:04.375Z,-1.31
2022-11-18T20:02:38.937Z,-1.26
2022-11-18T20:05:25.425Z,-1.42
2022-11-18T20:07:58.185Z,-1.39
2022-11-18T20:10:29.868Z,-1.37
2022-11-18T20:12:58.625Z,-1.55
2022-11-18T20:15:28.394Z,-1.54
2022-11-18T20:17:56.801Z,-1.49
2022-11-18T20:20:25.217Z,-1.46
2022-11-18T20:22:56.540Z,-1.33
2022-11-18T20:25:25.440Z,-1.22
2022-11-18T20:27:55.458Z,-1.07
2022-11-18T20:30:23.815Z,-1.14
2022-11-18T20:32:53.649Z,-1.12
2022-11-18T20:35:21.998Z,-1.13
2022-11-18T20:37:50.253Z,-1.25
2022-11-18T20:40:18.991Z,-1.18
2022-11-18T20:43:04.601Z,-1.16
2022-11-18T20:45:33.035Z,-1.10
2022-11-18T20:48:03.238Z,-1.08
2022-11-18T20:50:31.670Z,-1.06
2022-11-18T20:53:00.321Z,-1.06
2022-11-18T20:55:28.739Z,-1.12
2022-11-18T20:57:57.024Z,-1.22
2022-11-18T21:00:25.441Z,-1.19
2022-11-18T21:02:53.832Z,-1.15
2022-11-18T21:05:24.536Z,-1.09
2022-11-18T21:07:56.400Z,-1.07
2022-11-18T21:10:25.628Z,-1.09
2022-11-18T21:13:11.451Z,-1.15
2022-11-18T21:15:42.648Z,-1.11
2022-11-18T21:18:10.911Z,-1.05
2022-11-18T21:20:58.404Z,-1.19
2022-11-18T21:23:27.359Z,-1.26
2022-11-18T21:25:55.848Z,-1.23
2022-11-18T21:28:25.290Z,-1.22
2022-11-18T21:30:53.568Z,-1.27
2022-11-18T21:33:21.984Z,-1.19
2022-11-18T21:35:52.143Z,-1.19
2022-11-18T21:38:20.577Z,-1.25
2022-11-18T21:40:48.834Z,-1.31
2022-11-18T21:43:28.636Z,-1.17
2022-11-18T21:46:09.291Z,-1.35
2022-11-18T21:48:37.995Z,-1.45
2022-11-18T21:51:09.537Z,-1.38
2022-11-18T21:53:37.923Z,-1.28
2022-11-18T21:56:07.493Z,-1.16
2022-11-18T21:58:35.853Z,-1.30
2022-11-18T22:01:10.195Z,-1.23
2022-11-18T22:03:40.820Z,-1.14
2022-11-18T22:06:14.428Z,-1.10
2022-11-18T22:08:42.717Z,-1.16
2022-11-18T22:11:11.945Z,-1.27
2022-11-18T22:13:40.305Z,-1.35
2022-11-18T22:16:09.934Z,-1.46
2022-11-18T22:18:39.190Z,-1.32
2022-11-18T22:21:09.195Z,-1.38
2022-11-18T22:23:39.125Z,-1.41
2022-11-18T22:26:08.947Z,-1.30
2022-11-18T22:28:37.580Z,-1.32
2022-11-18T22:31:06.077Z,-1.33
2022-11-18T22:33:34.631Z,-1.45
2022-11-18T22:36:03.233Z,-1.38
2022-11-18T22:38:31.552Z,-1.46
2022-11-18T22:41:02.557Z,-1.55
2022-11-18T22:43:30.328Z,-1.63
2022-11-18T22:46:02.730Z,-1.62
2022-11-18T22:48:31.171Z,-1.51
2022-11-18T22:51:00.555Z,-1.48
2022-11-18T22:53:28.848Z,-1.48
2022-11-18T22:56:06.112Z,-1.54
2022-11-18T22:58:34.445Z,-1.54
2022-11-18T23:01:03.641Z,-1.45
2022-11-18T23:03:31.986Z,-1.62
2022-11-18T23:06:00.375Z,-1.64
2022-11-18T23:08:29.035Z,-1.72
2022-11-18T23:11:02.988Z,-1.50
2022-11-18T23:13:49.777Z,-1.55
2022-11-18T23:16:18.046Z,-1.69
2022-11-18T23:18:46.418Z,-1.78
2022-11-18T23:21:14.874Z,-1.80
2022-11-18T23:23:44.088Z,-1.85
2022-11-18T23:26:13.195Z,-1.95
2022-11-18T23:28:43.019Z,-1.98
2022-11-18T23:31:12.232Z,-1.79
2022-11-18T23:33:40.812Z,-1.69
2022-11-18T23:36:10.338Z,-1.64
2022-11-18T23:38:38.846Z,-1.79
2022-11-18T23:41:08.309Z,-1.76
2022-11-18T23:43:36.772Z,-1.70
2022-11-18T23:46:06.737Z,-1.67
2022-11-18T23:48:36.269Z,-1.62
2022-11-18T23:51:05.835Z,-1.63
2022-11-18T23:53:34.736Z,-1.77
2022-11-18T23:56:03.653Z,-1.78
2022-11-18T23:58:31.885Z,-1.96
